Flight Track Log - Related Links

Times and Time Zones

All times are in EDT time to prevent confusion due to time zone crossing. See the EGF3994 flight status page for this flight to view local times or setup timezone preferences in your user account.

Time Position Orientation Groundspeed Altitude Reporting Facility
EDT Latitude Longitude Course Direction KTS MPH feet Rate Location/Type
Thu 06:40:41 PM 41.9333 -87.9000 90° East 176 203 1,900  Level Chicago TRACON
Thu 06:41:41 PM 41.9000 -87.8500 132° Southeast 201 231 4,300 1,571 Climbing Chicago TRACON
Thu 06:42:00 PM 41.9667 -87.5973 90° East  Level FlightAware Approximate
Thu 06:42:47 PM 41.8500 -87.7667 129° Southeast 257 296 5,200  Level Chicago TRACON
Thu 06:43:00 PM 41.9580 -87.4467 98° East  Level FlightAware Approximate
Thu 06:44:00 PM 41.9450 -87.2964 95° East  Level FlightAware Approximate
Thu 06:44:55 PM 41.8297 -87.5903 99° East 284 327 9,900  Level Chicago Center
Thu 06:45:00 PM 41.9342 -87.1459 95° East  Level FlightAware Approximate
Thu 06:45:57 PM 41.8547 -87.4806 73° East 307 353 11,800  Level Chicago Center
Thu 06:46:00 PM 41.9333 -86.9947 90° East  Level FlightAware Approximate
Thu 06:46:59 PM 41.8814 -87.3656 73° East 321 369 13,700  Level Chicago Center
Thu 06:48:01 PM 41.9122 -87.2236 74° East 330 380 16,100 1,984 Climbing Chicago Center
Thu 06:49:03 PM 41.9378 -87.1036 74° East 334 384 17,800 1,776 Climbing Chicago Center
Thu 06:50:06 PM 41.9503 -86.9794 82° East 339 390 19,800 1,920 Climbing Chicago Center
Thu 06:51:08 PM 41.9492 -86.8483 91° East 351 404 21,800 1,548 Climbing Chicago Center
Thu 06:52:10 PM 41.9506 -86.7147 89° East 356 410 23,000 581 Climbing Chicago Center
Thu 06:53:12 PM 41.9378 -86.5608 96° East 406 467 23,000  Level Chicago Center
Thu 06:54:14 PM 41.9031 -86.3689 104° East 440 506 23,000  Level Chicago Center
Thu 06:55:16 PM 41.8736 -86.2042 103° East 449 517 23,000  Level Chicago Center
Thu 06:56:18 PM 41.8433 -86.0369 104° East 460 529 23,000  Level Chicago Center
Thu 06:57:20 PM 41.8125 -85.8703 104° East 460 529 23,000  Level Chicago Center
Thu 06:58:22 PM 41.7822 -85.7008 103° East 464 534 23,000  Level Chicago Center
Thu 06:59:24 PM 41.7344 -85.5381 111° Southeast 471 542 23,000  Level Chicago Center
Thu 07:00:28 PM 41.6033 -85.4514 154° Southeast 481 554 23,000 -95 Level Chicago Center
Thu 07:01:30 PM 41.4786 -85.3969 162° South 472 543 22,800 -726 Descending Chicago Center
Thu 07:02:32 PM 41.3544 -85.3436 162° South 471 542 21,500 -1,440 Descending Chicago Center
Thu 07:03:35 PM 41.2058 -85.2814 163° South 469 540 19,800 -1,536 Descending Chicago Center
Thu 07:04:37 PM 41.0872 -85.2317 162° South 455 524 18,300 -1,258 Descending Chicago Center
Thu 07:05:39 PM 40.9744 -85.1708 158° South 445 512 17,200 -1,210 Descending Chicago Center
Thu 07:06:41 PM 40.9047 -85.0425 126° Southeast 438 504 15,800 -1,113 Descending Chicago Center
Thu 07:07:43 PM 40.8328 -84.9225 128° Southeast 423 487 14,900 -387 Descending Chicago Center
Thu 07:08:45 PM 40.7503 -84.7867 129° Southeast 404 465 15,000 48 Climbing Chicago Center
Thu 07:09:47 PM 40.6819 -84.6753 129° Southeast 395 455 15,000 -387 Level Chicago Center
Thu 07:10:49 PM 40.6139 -84.5664 129° Southeast 390 449 14,200 -1,041 Descending Chicago Center
Thu 07:11:25 PM 40.5753 -84.5022 128° Southeast 387 445 13,300 -1,408 Descending Indianapolis Center
Thu 07:12:27 PM 40.5058 -84.3914 129° Southeast 388 447 11,900 -1,432 Descending Indianapolis Center
Thu 07:12:53 PM 40.4650 -84.3425 138° Southeast 387 445 11,200 -871 Descending Indianapolis Center
Thu 07:13:29 PM 40.4239 -84.3011 143° Southeast 380 437 11,000 -179 Descending Indianapolis Center
Thu 07:14:00 PM 40.3700 -84.2447 141° Southeast 373 429 11,000  Level Indianapolis Center
Thu 07:14:30 PM 40.3422 -84.2158 142° Southeast 374 430 11,000 -783 Level Indianapolis Center
Thu 07:15:32 PM 40.2586 -84.1269 141° Southeast 330 380 9,800 -1,129 Descending Indianapolis Center
Thu 07:15:55 PM 40.2361 -84.1064 145° Southeast 293 337 9,400 -1,452 Descending Indianapolis Center
Thu 07:16:34 PM 40.1953 -84.0600 139° Southeast 302 348 8,300 -1,574 Descending Indianapolis Center
Thu 07:16:56 PM 40.1706 -84.0350 142° Southeast 272 313 7,800 -1,452 Descending Indianapolis Center
Thu 07:17:36 PM 40.1367 -83.9975 140° Southeast 284 327 6,800 -1,475 Descending Indianapolis Center
Thu 07:17:57 PM 40.1142 -83.9758 144° Southeast 263 303 6,300 -1,452 Descending Indianapolis Center
Thu 07:18:38 PM 40.0861 -83.9383 134° Southeast 260 299 5,300 -1,180 Descending Indianapolis Center
Thu 07:18:58 PM 40.0658 -83.9231 150° Southeast 220 253 5,100 -290 Descending Indianapolis Center
Thu 07:19:40 PM 40.0478 -83.9456 224° Southwest 218 251 5,000 -117 Descending Indianapolis Center
Thu 07:20:41 PM 40.0253 -84.0019 242° Southwest 189 217 4,900 -228 Descending Indianapolis Center
Thu 07:20:59 PM 40.0144 -84.0200 232° Southwest 164 189 4,700 -968 Descending Indianapolis Center
Thu 07:21:43 PM 39.9978 -84.0553 238° Southwest 177 204 3,900 -1,091 Descending Indianapolis Center

Login

Don't have an account? Register now (free) for customized features, flight alerts, and more!